sensor_id;sensor_type;location;lat;lon;timestamp;pressure;altitude;pressure_sealevel;temperature;humidity
113;BME280;45999;48.808;9.182;2023-03-18T00:00:32;97631.38;;;13.15;49.19
113;BME280;45999;48.808;9.182;2023-03-18T00:02:58;97627.56;;;13.11;49.01
113;BME280;45999;48.808;9.182;2023-03-18T00:05:24;97634.28;;;13.14;48.87
113;BME280;45999;48.808;9.182;2023-03-18T00:07:52;97636.16;;;13.13;49.19
113;BME280;45999;48.808;9.182;2023-03-18T00:10:18;97630.91;;;13.02;49.34
113;BME280;45999;48.808;9.182;2023-03-18T00:12:44;97627.81;;;12.93;49.58
113;BME280;45999;48.808;9.182;2023-03-18T00:15:12;97632.50;;;12.86;49.81
113;BME280;45999;48.808;9.182;2023-03-18T00:17:40;97631.53;;;12.92;49.79
113;BME280;45999;48.808;9.182;2023-03-18T00:20:08;97633.06;;;12.88;49.56
113;BME280;45999;48.808;9.182;2023-03-18T00:22:37;97628.28;;;12.74;50.24
113;BME280;45999;48.808;9.182;2023-03-18T00:25:06;97628.13;;;12.64;50.88
113;BME280;45999;48.808;9.182;2023-03-18T00:27:34;97630.72;;;12.59;50.94
113;BME280;45999;48.808;9.182;2023-03-18T00:30:01;97638.88;;;12.52;51.45
113;BME280;45999;48.808;9.182;2023-03-18T00:32:29;97639.75;;;12.41;51.48
113;BME280;45999;48.808;9.182;2023-03-18T00:34:56;97648.91;;;12.62;50.43
113;BME280;45999;48.808;9.182;2023-03-18T00:37:24;97651.91;;;12.65;50.39
113;BME280;45999;48.808;9.182;2023-03-18T00:39:57;97656.69;;;12.63;50.55
113;BME280;45999;48.808;9.182;2023-03-18T00:42:23;97654.19;;;12.73;50.18
113;BME280;45999;48.808;9.182;2023-03-18T00:44:50;97662.47;;;12.60;50.58
113;BME280;45999;48.808;9.182;2023-03-18T00:47:16;97665.00;;;12.67;50.39
113;BME280;45999;48.808;9.182;2023-03-18T00:49:42;97666.84;;;12.66;50.25
113;BME280;45999;48.808;9.182;2023-03-18T00:52:09;97664.53;;;12.70;50.10
113;BME280;45999;48.808;9.182;2023-03-18T00:54:36;97669.34;;;12.73;49.76
113;BME280;45999;48.808;9.182;2023-03-18T00:57:02;97665.22;;;12.65;49.67
113;BME280;45999;48.808;9.182;2023-03-18T00:59:29;97664.84;;;12.57;50.04
113;BME280;45999;48.808;9.182;2023-03-18T01:01:57;97668.28;;;12.57;50.17
113;BME280;45999;48.808;9.182;2023-03-18T01:04:23;97672.47;;;12.53;50.43
113;BME280;45999;48.808;9.182;2023-03-18T01:06:50;97670.56;;;12.49;50.40
113;BME280;45999;48.808;9.182;2023-03-18T01:09:16;97670.47;;;12.44;50.70
113;BME280;45999;48.808;9.182;2023-03-18T01:11:43;97659.84;;;12.32;50.83
113;BME280;45999;48.808;9.182;2023-03-18T01:14:09;97668.47;;;12.23;51.26
113;BME280;45999;48.808;9.182;2023-03-18T01:16:36;97673.47;;;12.19;51.69
113;BME280;45999;48.808;9.182;2023-03-18T01:19:03;97672.88;;;12.17;51.15
113;BME280;45999;48.808;9.182;2023-03-18T01:21:29;97667.28;;;12.02;53.25
113;BME280;45999;48.808;9.182;2023-03-18T01:23:56;97671.50;;;12.15;51.26
113;BME280;45999;48.808;9.182;2023-03-18T01:26:24;97672.50;;;12.25;50.69
113;BME280;45999;48.808;9.182;2023-03-18T01:28:51;97670.03;;;12.35;49.88
113;BME280;45999;48.808;9.182;2023-03-18T01:31:17;97669.78;;;12.37;49.80
113;BME280;45999;48.808;9.182;2023-03-18T01:33:44;97664.91;;;12.45;49.61
113;BME280;45999;48.808;9.182;2023-03-18T01:36:11;97659.41;;;12.24;51.42
113;BME280;45999;48.808;9.182;2023-03-18T01:38:39;97651.34;;;12.35;50.36
113;BME280;45999;48.808;9.182;2023-03-18T01:41:06;97653.16;;;12.30;50.64
113;BME280;45999;48.808;9.182;2023-03-18T01:43:36;97655.47;;;12.26;50.59
113;BME280;45999;48.808;9.182;2023-03-18T01:46:33;97650.47;;;12.30;50.38
113;BME280;45999;48.808;9.182;2023-03-18T01:49:02;97659.22;;;12.14;51.21
113;BME280;45999;48.808;9.182;2023-03-18T01:51:29;97653.66;;;12.15;51.89
113;BME280;45999;48.808;9.182;2023-03-18T01:53:58;97652.56;;;12.00;52.33
113;BME280;45999;48.808;9.182;2023-03-18T01:56:25;97657.22;;;12.04;51.82
113;BME280;45999;48.808;9.182;2023-03-18T01:58:54;97653.25;;;12.07;51.17
113;BME280;45999;48.808;9.182;2023-03-18T02:01:33;97667.41;;;12.24;50.39
113;BME280;45999;48.808;9.182;2023-03-18T02:04:02;97654.97;;;12.13;51.32
113;BME280;45999;48.808;9.182;2023-03-18T02:06:29;97654.53;;;12.04;51.51
113;BME280;45999;48.808;9.182;2023-03-18T02:08:57;97660.53;;;12.11;50.96
113;BME280;45999;48.808;9.182;2023-03-18T02:11:24;97657.38;;;12.14;51.44
113;BME280;45999;48.808;9.182;2023-03-18T02:13:52;97658.44;;;12.13;52.14
113;BME280;45999;48.808;9.182;2023-03-18T02:16:42;97648.56;;;12.14;51.17
113;BME280;45999;48.808;9.182;2023-03-18T02:22:23;97649.78;;;12.06;51.45
113;BME280;45999;48.808;9.182;2023-03-18T02:25:40;97646.06;;;12.07;51.56
113;BME280;45999;48.808;9.182;2023-03-18T02:27:41;97654.53;;;12.04;52.29
113;BME280;45999;48.808;9.182;2023-03-18T02:30:13;97657.25;;;11.93;52.09
113;BME280;45999;48.808;9.182;2023-03-18T02:32:41;97659.09;;;11.92;52.50
113;BME280;45999;48.808;9.182;2023-03-18T02:35:09;97653.66;;;11.87;52.41
113;BME280;45999;48.808;9.182;2023-03-18T02:37:37;97652.63;;;11.88;52.27
113;BME280;45999;48.808;9.182;2023-03-18T02:40:16;97658.13;;;11.98;51.95
113;BME280;45999;48.808;9.182;2023-03-18T02:42:44;97656.22;;;11.82;52.49
113;BME280;45999;48.808;9.182;2023-03-18T02:47:56;97663.56;;;11.64;53.02
113;BME280;45999;48.808;9.182;2023-03-18T02:50:24;97668.97;;;11.57;54.95
113;BME280;45999;48.808;9.182;2023-03-18T02:52:51;97667.50;;;11.50;54.27
113;BME280;45999;48.808;9.182;2023-03-18T02:55:17;97671.00;;;11.39;55.63
113;BME280;45999;48.808;9.182;2023-03-18T02:57:43;97666.94;;;11.36;55.14
113;BME280;45999;48.808;9.182;2023-03-18T03:00:10;97672.38;;;11.30;54.96
113;BME280;45999;48.808;9.182;2023-03-18T03:02:37;97671.34;;;11.31;55.06
113;BME280;45999;48.808;9.182;2023-03-18T03:05:04;97671.00;;;11.16;56.68
113;BME280;45999;48.808;9.182;2023-03-18T03:07:30;97675.63;;;11.08;56.17
113;BME280;45999;48.808;9.182;2023-03-18T03:09:57;97680.94;;;11.08;58.94
113;BME280;45999;48.808;9.182;2023-03-18T03:12:23;97676.56;;;11.14;56.03
113;BME280;45999;48.808;9.182;2023-03-18T03:14:50;97678.28;;;11.20;56.38
113;BME280;45999;48.808;9.182;2023-03-18T03:17:16;97686.47;;;11.30;55.81
113;BME280;45999;48.808;9.182;2023-03-18T03:19:43;97686.59;;;11.23;57.61
113;BME280;45999;48.808;9.182;2023-03-18T03:22:10;97694.69;;;11.40;54.91
113;BME280;45999;48.808;9.182;2023-03-18T03:24:36;97685.47;;;11.43;54.69
113;BME280;45999;48.808;9.182;2023-03-18T03:27:03;97681.25;;;11.47;54.52
113;BME280;45999;48.808;9.182;2023-03-18T03:29:30;97686.47;;;11.53;54.48
113;BME280;45999;48.808;9.182;2023-03-18T03:31:56;97679.31;;;11.42;54.68
113;BME280;45999;48.808;9.182;2023-03-18T03:34:22;97688.56;;;11.28;55.84
113;BME280;45999;48.808;9.182;2023-03-18T03:36:49;97686.97;;;11.39;54.87
113;BME280;45999;48.808;9.182;2023-03-18T03:39:15;97699.91;;;11.35;54.91
113;BME280;45999;48.808;9.182;2023-03-18T03:41:43;97708.72;;;11.36;55.03
113;BME280;45999;48.808;9.182;2023-03-18T03:44:09;97708.72;;;11.36;55.39
113;BME280;45999;48.808;9.182;2023-03-18T03:46:36;97706.72;;;11.08;57.00
113;BME280;45999;48.808;9.182;2023-03-18T03:49:03;97708.47;;;11.02;57.84
113;BME280;45999;48.808;9.182;2023-03-18T03:51:30;97706.81;;;10.90;58.25
113;BME280;45999;48.808;9.182;2023-03-18T03:53:57;97709.81;;;10.70;59.43
113;BME280;45999;48.808;9.182;2023-03-18T03:56:23;97711.84;;;10.57;60.19
113;BME280;45999;48.808;9.182;2023-03-18T03:58:49;97709.38;;;10.44;62.71
113;BME280;45999;48.808;9.182;2023-03-18T04:01:16;97707.94;;;10.30;63.54
113;BME280;45999;48.808;9.182;2023-03-18T04:03:42;97708.84;;;10.24;64.37
113;BME280;45999;48.808;9.182;2023-03-18T04:06:09;97715.00;;;10.06;65.40
113;BME280;45999;48.808;9.182;2023-03-18T04:08:36;97712.41;;;10.00;65.24
113;BME280;45999;48.808;9.182;2023-03-18T04:11:02;97717.41;;;9.90;66.08
113;BME280;45999;48.808;9.182;2023-03-18T04:13:29;97710.03;;;9.92;64.84
113;BME280;45999;48.808;9.182;2023-03-18T04:15:55;97714.38;;;9.86;68.47
113;BME280;45999;48.808;9.182;2023-03-18T04:18:22;97717.41;;;9.72;70.06
113;BME280;45999;48.808;9.182;2023-03-18T04:20:48;97715.06;;;9.64;71.98
113;BME280;45999;48.808;9.182;2023-03-18T04:23:15;97711.66;;;9.57;72.05
113;BME280;45999;48.808;9.182;2023-03-18T04:25:41;97718.28;;;9.48;74.06
113;BME280;45999;48.808;9.182;2023-03-18T04:28:07;97715.28;;;9.44;73.32
113;BME280;45999;48.808;9.182;2023-03-18T04:30:34;97712.41;;;9.46;72.96
113;BME280;45999;48.808;9.182;2023-03-18T04:33:00;97704.13;;;9.36;74.23
113;BME280;45999;48.808;9.182;2023-03-18T04:35:27;97713.84;;;9.24;73.01
113;BME280;45999;48.808;9.182;2023-03-18T04:37:53;97716.88;;;9.27;72.42
113;BME280;45999;48.808;9.182;2023-03-18T04:40:20;97713.25;;;9.22;72.09
113;BME280;45999;48.808;9.182;2023-03-18T04:42:46;97710.84;;;9.20;74.26
113;BME280;45999;48.808;9.182;2023-03-18T04:45:14;97711.47;;;9.16;74.52
113;BME280;45999;48.808;9.182;2023-03-18T04:47:41;97715.00;;;9.10;75.20
113;BME280;45999;48.808;9.182;2023-03-18T04:50:09;97711.16;;;9.06;76.22
113;BME280;45999;48.808;9.182;2023-03-18T04:52:37;97716.72;;;8.98;76.65
113;BME280;45999;48.808;9.182;2023-03-18T04:55:04;97721.88;;;8.93;75.67
113;BME280;45999;48.808;9.182;2023-03-18T04:57:32;97726.59;;;8.91;75.82
113;BME280;45999;48.808;9.182;2023-03-18T04:59:59;97726.06;;;8.76;77.01
113;BME280;45999;48.808;9.182;2023-03-18T05:02:26;97724.03;;;8.78;75.66
113;BME280;45999;48.808;9.182;2023-03-18T05:04:52;97721.38;;;8.78;75.96
113;BME280;45999;48.808;9.182;2023-03-18T05:07:19;97714.13;;;8.67;77.84
113;BME280;45999;48.808;9.182;2023-03-18T05:09:46;97707.41;;;8.64;77.16
113;BME280;45999;48.808;9.182;2023-03-18T05:12:13;97711.88;;;8.70;74.08
113;BME280;45999;48.808;9.182;2023-03-18T05:14:41;97715.06;;;8.79;73.04
113;BME280;45999;48.808;9.182;2023-03-18T05:17:08;97714.88;;;8.74;75.43
113;BME280;45999;48.808;9.182;2023-03-18T05:19:41;97724.34;;;8.63;76.94
113;BME280;45999;48.808;9.182;2023-03-18T05:22:07;97722.38;;;8.52;78.04
113;BME280;45999;48.808;9.182;2023-03-18T05:24:34;97727.44;;;8.54;77.88
113;BME280;45999;48.808;9.182;2023-03-18T05:27:00;97727.31;;;8.42;79.29
113;BME280;45999;48.808;9.182;2023-03-18T05:29:27;97729.34;;;8.47;77.50
113;BME280;45999;48.808;9.182;2023-03-18T05:31:53;97730.59;;;8.44;76.68
113;BME280;45999;48.808;9.182;2023-03-18T05:34:20;97733.09;;;8.33;78.73
113;BME280;45999;48.808;9.182;2023-03-18T05:36:46;97729.00;;;8.37;79.19
113;BME280;45999;48.808;9.182;2023-03-18T05:39:13;97731.41;;;8.38;77.52
113;BME280;45999;48.808;9.182;2023-03-18T05:41:39;97736.09;;;8.43;75.82
113;BME280;45999;48.808;9.182;2023-03-18T05:44:06;97732.25;;;8.39;78.82
113;BME280;45999;48.808;9.182;2023-03-18T05:46:32;97735.50;;;8.41;77.75
113;BME280;45999;48.808;9.182;2023-03-18T05:48:59;97733.53;;;8.23;78.61
113;BME280;45999;48.808;9.182;2023-03-18T05:51:25;97732.06;;;8.34;78.33
113;BME280;45999;48.808;9.182;2023-03-18T05:53:52;97735.19;;;8.55;79.62
113;BME280;45999;48.808;9.182;2023-03-18T05:56:18;97730.97;;;8.48;80.70
113;BME280;45999;48.808;9.182;2023-03-18T05:58:45;97731.16;;;8.46;81.29
113;BME280;45999;48.808;9.182;2023-03-18T06:01:11;97735.06;;;8.44;82.42
113;BME280;45999;48.808;9.182;2023-03-18T06:03:38;97728.19;;;8.36;83.35
113;BME280;45999;48.808;9.182;2023-03-18T06:06:05;97736.31;;;8.35;83.02
113;BME280;45999;48.808;9.182;2023-03-18T06:08:33;97733.69;;;8.35;84.18
113;BME280;45999;48.808;9.182;2023-03-18T06:10:59;97737.94;;;8.36;84.88
113;BME280;45999;48.808;9.182;2023-03-18T06:13:25;97735.78;;;8.26;86.45
113;BME280;45999;48.808;9.182;2023-03-18T06:15:56;97740.19;;;8.39;85.75
113;BME280;45999;48.808;9.182;2023-03-18T06:18:24;97736.94;;;8.37;86.42
113;BME280;45999;48.808;9.182;2023-03-18T06:20:50;97740.38;;;8.37;85.86
113;BME280;45999;48.808;9.182;2023-03-18T06:23:17;97741.00;;;8.39;87.47
113;BME280;45999;48.808;9.182;2023-03-18T06:25:43;97745.31;;;8.34;86.22
113;BME280;45999;48.808;9.182;2023-03-18T06:28:11;97745.88;;;8.36;86.18
113;BME280;45999;48.808;9.182;2023-03-18T06:30:38;97742.00;;;8.38;86.94
113;BME280;45999;48.808;9.182;2023-03-18T06:33:05;97756.91;;;8.39;88.50
113;BME280;45999;48.808;9.182;2023-03-18T06:35:32;97754.28;;;8.33;88.95
113;BME280;45999;48.808;9.182;2023-03-18T06:37:59;97749.38;;;8.36;88.83
113;BME280;45999;48.808;9.182;2023-03-18T06:40:25;97753.25;;;8.34;90.16
113;BME280;45999;48.808;9.182;2023-03-18T06:42:52;97748.09;;;8.45;88.06
113;BME280;45999;48.808;9.182;2023-03-18T06:45:18;97748.69;;;8.47;88.03
113;BME280;45999;48.808;9.182;2023-03-18T06:47:45;97751.09;;;8.55;87.56
113;BME280;45999;48.808;9.182;2023-03-18T06:50:12;97754.09;;;8.59;87.51
113;BME280;45999;48.808;9.182;2023-03-18T06:52:39;97756.31;;;8.68;85.10
113;BME280;45999;48.808;9.182;2023-03-18T06:55:07;97751.81;;;8.69;86.41
113;BME280;45999;48.808;9.182;2023-03-18T06:57:33;97753.81;;;8.73;86.05
113;BME280;45999;48.808;9.182;2023-03-18T07:00:01;97752.53;;;8.82;84.58
113;BME280;45999;48.808;9.182;2023-03-18T07:02:28;97752.69;;;8.87;84.35
113;BME280;45999;48.808;9.182;2023-03-18T07:04:55;97759.16;;;8.98;83.27
113;BME280;45999;48.808;9.182;2023-03-18T07:07:21;97748.84;;;9.08;82.07
113;BME280;45999;48.808;9.182;2023-03-18T07:09:48;97764.72;;;9.14;83.00
113;BME280;45999;48.808;9.182;2023-03-18T07:12:15;97766.22;;;9.28;80.48
113;BME280;45999;48.808;9.182;2023-03-18T07:14:41;97762.59;;;9.47;80.66
113;BME280;45999;48.808;9.182;2023-03-18T07:17:09;97758.03;;;9.72;78.19
113;BME280;45999;48.808;9.182;2023-03-18T07:19:36;97757.22;;;9.72;79.27
113;BME280;45999;48.808;9.182;2023-03-18T07:22:02;97771.41;;;9.84;78.02
113;BME280;45999;48.808;9.182;2023-03-18T07:24:29;97759.00;;;9.78;78.46
113;BME280;45999;48.808;9.182;2023-03-18T07:26:56;97762.31;;;9.91;76.30
113;BME280;45999;48.808;9.182;2023-03-18T07:29:22;97767.84;;;9.90;77.02
113;BME280;45999;48.808;9.182;2023-03-18T07:31:49;97767.78;;;9.96;77.80
113;BME280;45999;48.808;9.182;2023-03-18T07:34:15;97764.84;;;10.04;77.66
113;BME280;45999;48.808;9.182;2023-03-18T07:36:42;97768.19;;;10.18;76.63
113;BME280;45999;48.808;9.182;2023-03-18T07:39:09;97778.63;;;10.31;74.95
113;BME280;45999;48.808;9.182;2023-03-18T07:41:36;97785.72;;;10.37;74.08
113;BME280;45999;48.808;9.182;2023-03-18T07:44:03;97790.63;;;10.51;73.46
113;BME280;45999;48.808;9.182;2023-03-18T07:46:30;97784.13;;;10.65;72.50
113;BME280;45999;48.808;9.182;2023-03-18T07:48:57;97780.53;;;10.71;74.52
113;BME280;45999;48.808;9.182;2023-03-18T07:51:24;97786.72;;;10.83;72.62
113;BME280;45999;48.808;9.182;2023-03-18T07:53:50;97787.28;;;10.85;72.88
113;BME280;45999;48.808;9.182;2023-03-18T07:56:16;97794.94;;;10.93;71.55
113;BME280;45999;48.808;9.182;2023-03-18T07:58:43;97784.66;;;10.97;70.10
113;BME280;45999;48.808;9.182;2023-03-18T08:01:09;97785.00;;;11.00;70.21
113;BME280;45999;48.808;9.182;2023-03-18T08:03:36;97785.13;;;11.05;69.70
113;BME280;45999;48.808;9.182;2023-03-18T08:06:03;97783.09;;;11.19;67.79
113;BME280;45999;48.808;9.182;2023-03-18T08:08:29;97789.47;;;11.30;66.59
113;BME280;45999;48.808;9.182;2023-03-18T08:10:59;97789.59;;;11.46;67.11
113;BME280;45999;48.808;9.182;2023-03-18T08:13:26;97787.31;;;11.61;65.56
113;BME280;45999;48.808;9.182;2023-03-18T08:15:53;97785.25;;;11.63;66.11
113;BME280;45999;48.808;9.182;2023-03-18T08:18:21;97788.25;;;11.78;65.07
113;BME280;45999;48.808;9.182;2023-03-18T08:20:48;97790.44;;;11.93;64.50
113;BME280;45999;48.808;9.182;2023-03-18T08:23:14;97792.38;;;11.97;65.80
113;BME280;45999;48.808;9.182;2023-03-18T08:25:41;97795.28;;;11.96;64.32
113;BME280;45999;48.808;9.182;2023-03-18T08:28:08;97803.72;;;12.16;64.22
113;BME280;45999;48.808;9.182;2023-03-18T08:30:37;97794.44;;;12.18;62.37
113;BME280;45999;48.808;9.182;2023-03-18T08:33:04;97795.44;;;12.40;61.66
113;BME280;45999;48.808;9.182;2023-03-18T08:35:30;97791.47;;;12.43;63.18
113;BME280;45999;48.808;9.182;2023-03-18T08:37:58;97786.84;;;12.38;63.31
113;BME280;45999;48.808;9.182;2023-03-18T08:40:24;97784.47;;;12.53;62.33
113;BME280;45999;48.808;9.182;2023-03-18T08:42:51;97789.25;;;12.79;61.40
113;BME280;45999;48.808;9.182;2023-03-18T08:45:18;97786.03;;;12.94;61.35
113;BME280;45999;48.808;9.182;2023-03-18T08:47:45;97782.19;;;13.01;61.06
113;BME280;45999;48.808;9.182;2023-03-18T08:50:12;97785.03;;;13.28;60.00
113;BME280;45999;48.808;9.182;2023-03-18T08:52:38;97787.91;;;13.38;58.58
113;BME280;45999;48.808;9.182;2023-03-18T08:55:06;97779.78;;;13.16;59.22
113;BME280;45999;48.808;9.182;2023-03-18T08:57:33;97782.44;;;13.33;58.71
113;BME280;45999;48.808;9.182;2023-03-18T09:00:02;97770.16;;;13.48;56.55
113;BME280;45999;48.808;9.182;2023-03-18T09:02:29;97778.34;;;13.42;57.85
113;BME280;45999;48.808;9.182;2023-03-18T09:04:55;97769.19;;;13.71;56.68
113;BME280;45999;48.808;9.182;2023-03-18T09:07:22;97769.38;;;13.86;54.99
113;BME280;45999;48.808;9.182;2023-03-18T09:09:49;97772.63;;;13.88;54.92
113;BME280;45999;48.808;9.182;2023-03-18T09:12:15;97779.06;;;13.92;54.78
113;BME280;45999;48.808;9.182;2023-03-18T09:14:42;97773.31;;;14.00;53.76
113;BME280;45999;48.808;9.182;2023-03-18T09:17:08;97761.53;;;14.17;55.15
113;BME280;45999;48.808;9.182;2023-03-18T09:19:35;97765.78;;;14.35;53.55
113;BME280;45999;48.808;9.182;2023-03-18T09:22:02;97766.06;;;14.38;53.09
113;BME280;45999;48.808;9.182;2023-03-18T09:24:28;97765.28;;;14.38;53.75
113;BME280;45999;48.808;9.182;2023-03-18T09:26:55;97768.22;;;14.63;52.36
113;BME280;45999;48.808;9.182;2023-03-18T09:29:23;97767.78;;;14.71;50.09
113;BME280;45999;48.808;9.182;2023-03-18T09:31:51;97763.91;;;14.83;51.53
113;BME280;45999;48.808;9.182;2023-03-18T09:34:18;97761.03;;;14.90;50.16
113;BME280;45999;48.808;9.182;2023-03-18T09:36:44;97759.47;;;14.94;48.03
113;BME280;45999;48.808;9.182;2023-03-18T09:39:18;97760.88;;;14.75;49.77
113;BME280;45999;48.808;9.182;2023-03-18T09:42:08;97762.31;;;15.14;47.95
113;BME280;45999;48.808;9.182;2023-03-18T09:44:40;97759.25;;;15.00;48.83
113;BME280;45999;48.808;9.182;2023-03-18T09:52:43;97759.66;;;15.45;47.58
113;BME280;45999;48.808;9.182;2023-03-18T09:57:43;97744.22;;;15.57;46.86
113;BME280;45999;48.808;9.182;2023-03-18T10:02:45;97743.69;;;15.60;45.55
113;BME280;45999;48.808;9.182;2023-03-18T10:05:17;97737.66;;;15.80;46.07
113;BME280;45999;48.808;9.182;2023-03-18T10:07:46;97738.03;;;15.98;44.90
113;BME280;45999;48.808;9.182;2023-03-18T10:10:27;97732.03;;;15.81;45.44
113;BME280;45999;48.808;9.182;2023-03-18T10:13:19;97731.69;;;16.19;44.91
113;BME280;45999;48.808;9.182;2023-03-18T10:15:55;97730.72;;;16.40;44.40
113;BME280;45999;48.808;9.182;2023-03-18T10:18:25;97730.06;;;16.18;44.79
113;BME280;45999;48.808;9.182;2023-03-18T10:21:15;97731.47;;;16.31;43.25
113;BME280;45999;48.808;9.182;2023-03-18T10:26:29;97731.28;;;16.47;43.66
113;BME280;45999;48.808;9.182;2023-03-18T10:29:26;97730.78;;;16.65;42.62
113;BME280;45999;48.808;9.182;2023-03-18T10:37:45;97735.84;;;16.47;43.18
113;BME280;45999;48.808;9.182;2023-03-18T10:40:16;97731.22;;;16.37;45.27
113;BME280;45999;48.808;9.182;2023-03-18T10:42:44;97737.66;;;16.36;44.53
113;BME280;45999;48.808;9.182;2023-03-18T10:45:26;97728.25;;;16.29;46.00
113;BME280;45999;48.808;9.182;2023-03-18T10:48:03;97724.28;;;16.41;44.76
113;BME280;45999;48.808;9.182;2023-03-18T10:56:12;97717.72;;;17.14;42.86
113;BME280;45999;48.808;9.182;2023-03-18T10:58:40;97713.94;;;17.25;42.45
113;BME280;45999;48.808;9.182;2023-03-18T11:01:13;97711.25;;;17.05;42.30
113;BME280;45999;48.808;9.182;2023-03-18T11:03:51;97707.75;;;16.89;43.23
113;BME280;45999;48.808;9.182;2023-03-18T11:06:39;97695.38;;;16.73;43.57
113;BME280;45999;48.808;9.182;2023-03-18T11:09:12;97703.19;;;17.00;41.70
113;BME280;45999;48.808;9.182;2023-03-18T11:11:45;97707.75;;;16.94;41.87
113;BME280;45999;48.808;9.182;2023-03-18T11:14:19;97701.84;;;16.97;41.26
113;BME280;45999;48.808;9.182;2023-03-18T11:17:01;97689.75;;;17.20;40.98
113;BME280;45999;48.808;9.182;2023-03-18T11:19:35;97694.31;;;17.29;42.72
113;BME280;45999;48.808;9.182;2023-03-18T11:24:31;97683.56;;;17.19;39.90
113;BME280;45999;48.808;9.182;2023-03-18T11:27:20;97678.19;;;17.19;40.75
113;BME280;45999;48.808;9.182;2023-03-18T11:32:31;97663.19;;;17.43;39.47
113;BME280;45999;48.808;9.182;2023-03-18T11:35:00;97677.66;;;17.37;39.38
113;BME280;45999;48.808;9.182;2023-03-18T11:37:35;97674.44;;;17.50;38.66
113;BME280;45999;48.808;9.182;2023-03-18T11:40:34;97663.41;;;17.37;38.38
113;BME280;45999;48.808;9.182;2023-03-18T11:43:15;97663.13;;;17.33;38.05
113;BME280;45999;48.808;9.182;2023-03-18T11:46:02;97662.34;;;17.53;37.98
113;BME280;45999;48.808;9.182;2023-03-18T11:48:35;97663.03;;;17.83;38.46
113;BME280;45999;48.808;9.182;2023-03-18T11:56:37;97649.44;;;17.40;36.43
113;BME280;45999;48.808;9.182;2023-03-18T12:02:13;97638.66;;;17.65;35.40
113;BME280;45999;48.808;9.182;2023-03-18T12:05:08;97642.59;;;17.87;34.39
113;BME280;45999;48.808;9.182;2023-03-18T12:07:49;97639.63;;;17.89;33.75
113;BME280;45999;48.808;9.182;2023-03-18T12:10:37;97634.53;;;17.87;34.05
113;BME280;45999;48.808;9.182;2023-03-18T12:13:14;97637.75;;;17.94;33.43
113;BME280;45999;48.808;9.182;2023-03-18T12:24:38;97632.38;;;17.89;34.26
113;BME280;45999;48.808;9.182;2023-03-18T12:33:10;97620.81;;;17.89;35.10
113;BME280;45999;48.808;9.182;2023-03-18T12:41:54;97617.44;;;18.17;35.69
113;BME280;45999;48.808;9.182;2023-03-18T12:47:16;97613.66;;;18.23;34.88
113;BME280;45999;48.808;9.182;2023-03-18T12:49:57;97605.56;;;18.28;34.69
113;BME280;45999;48.808;9.182;2023-03-18T12:52:40;97612.50;;;18.39;33.99
113;BME280;45999;48.808;9.182;2023-03-18T12:55:28;97614.00;;;18.06;34.58
113;BME280;45999;48.808;9.182;2023-03-18T12:58:04;97608.81;;;18.20;35.37
113;BME280;45999;48.808;9.182;2023-03-18T13:00:45;97605.44;;;17.99;33.70
113;BME280;45999;48.808;9.182;2023-03-18T13:03:30;97602.94;;;18.18;33.92
113;BME280;45999;48.808;9.182;2023-03-18T13:06:05;97599.81;;;18.44;34.06
113;BME280;45999;48.808;9.182;2023-03-18T13:14:18;97589.75;;;18.16;34.39
113;BME280;45999;48.808;9.182;2023-03-18T13:16:48;97595.13;;;18.16;34.20
113;BME280;45999;48.808;9.182;2023-03-18T13:19:14;97591.53;;;18.31;34.66
113;BME280;45999;48.808;9.182;2023-03-18T13:21:47;97592.78;;;18.48;34.26
113;BME280;45999;48.808;9.182;2023-03-18T13:35:31;97597.00;;;18.59;32.34
113;BME280;45999;48.808;9.182;2023-03-18T13:44:03;97587.00;;;18.26;32.59
113;BME280;45999;48.808;9.182;2023-03-18T13:46:31;97596.72;;;18.17;32.49
113;BME280;45999;48.808;9.182;2023-03-18T13:49:00;97592.16;;;18.13;33.06
113;BME280;45999;48.808;9.182;2023-03-18T13:53:59;97589.06;;;18.44;32.54
113;BME280;45999;48.808;9.182;2023-03-18T13:56:47;97593.25;;;18.55;31.13
113;BME280;45999;48.808;9.182;2023-03-18T14:02:33;97586.69;;;18.71;31.14
113;BME280;45999;48.808;9.182;2023-03-18T14:05:39;97587.47;;;18.77;31.42
113;BME280;45999;48.808;9.182;2023-03-18T14:14:03;97582.78;;;18.87;31.16
113;BME280;45999;48.808;9.182;2023-03-18T14:19:05;97577.25;;;18.74;30.93
113;BME280;45999;48.808;9.182;2023-03-18T14:21:33;97581.34;;;18.66;28.80
113;BME280;45999;48.808;9.182;2023-03-18T14:27:08;97585.19;;;18.55;29.76
113;BME280;45999;48.808;9.182;2023-03-18T14:37:31;97582.78;;;18.54;28.28
113;BME280;45999;48.808;9.182;2023-03-18T14:40:03;97576.38;;;18.50;28.35
113;BME280;45999;48.808;9.182;2023-03-18T14:42:39;97580.34;;;18.57;28.51
113;BME280;45999;48.808;9.182;2023-03-18T14:45:16;97579.34;;;18.48;29.31
113;BME280;45999;48.808;9.182;2023-03-18T14:47:52;97575.50;;;18.54;29.35
113;BME280;45999;48.808;9.182;2023-03-18T14:53:10;97577.66;;;18.57;28.07
113;BME280;45999;48.808;9.182;2023-03-18T14:55:38;97561.13;;;18.69;28.21
113;BME280;45999;48.808;9.182;2023-03-18T14:58:04;97558.22;;;18.65;28.73
113;BME280;45999;48.808;9.182;2023-03-18T15:00:33;97555.22;;;18.67;29.49
113;BME280;45999;48.808;9.182;2023-03-18T15:03:06;97554.50;;;18.85;31.79
113;BME280;45999;48.808;9.182;2023-03-18T15:05:38;97559.19;;;18.74;28.97
113;BME280;45999;48.808;9.182;2023-03-18T15:08:12;97551.09;;;18.74;29.38
113;BME280;45999;48.808;9.182;2023-03-18T15:10:40;97554.09;;;18.73;29.91
113;BME280;45999;48.808;9.182;2023-03-18T15:13:14;97546.34;;;18.66;29.56
113;BME280;45999;48.808;9.182;2023-03-18T15:15:42;97547.50;;;18.55;30.19
113;BME280;45999;48.808;9.182;2023-03-18T15:20:57;97546.59;;;18.31;35.00
113;BME280;45999;48.808;9.182;2023-03-18T15:23:38;97554.81;;;18.06;38.00
113;BME280;45999;48.808;9.182;2023-03-18T15:26:06;97555.22;;;17.85;40.05
113;BME280;45999;48.808;9.182;2023-03-18T15:28:33;97554.84;;;18.01;41.10
113;BME280;45999;48.808;9.182;2023-03-18T15:31:00;97545.22;;;17.95;42.11
113;BME280;45999;48.808;9.182;2023-03-18T15:33:34;97543.28;;;17.52;44.04
113;BME280;45999;48.808;9.182;2023-03-18T15:36:10;97552.41;;;17.51;44.47
113;BME280;45999;48.808;9.182;2023-03-18T15:38:45;97547.31;;;17.45;45.00